Time;durP1;ratioP1;P1;durP2;ratioP2;P2;SDS_P1;SDS_P2;PMS_P1;PMS_P2;Temp;Humidity;BMP_temperature;BMP_pressure;BME280_temperature;BME280_humidity;BME280_pressure;Samples;Min_cycle;Max_cycle;Signal;HPM_P1;HPM_P2
2022/12/13 00:01:16;;;;;;;23.80;9.70;;;;;;;-5.21;67.90;100886.97;5049949;28;20056;-65
2022/12/13 00:03:44;;;;;;;17.08;9.23;;;;;;;-5.14;67.80;100881.09;5049895;28;20052;-65
2022/12/13 00:06:12;;;;;;;17.67;8.95;;;;;;;-5.16;67.88;100888.72;5058317;28;20044;-65
2022/12/13 00:08:39;;;;;;;20.83;9.35;;;;;;;-5.11;67.79;100887.13;5061097;28;20041;-65
2022/12/13 00:11:08;;;;;;;17.90;9.23;;;;;;;-4.99;67.58;100883.88;5061722;28;20047;-65
2022/12/13 00:13:34;;;;;;;20.58;9.43;;;;;;;-5.11;68.48;100876.88;5074258;28;20074;-65
2022/12/13 00:16:04;;;;;;;19.73;10.05;;;;;;;-5.11;68.25;100873.47;5061063;28;20052;-65
2022/12/13 00:18:30;;;;;;;21.45;9.55;;;;;;;-5.09;67.74;100870.09;5049781;28;20052;-65
2022/12/13 00:20:58;;;;;;;18.13;8.45;;;;;;;-5.25;67.29;100863.06;5054040;28;20040;-65
2022/12/13 00:23:25;;;;;;;21.17;9.10;;;;;;;-5.55;67.94;100863.47;5053116;28;20542;-65
2022/12/13 00:25:51;;;;;;;20.13;9.85;;;;;;;-5.60;68.10;100864.22;5075190;28;20737;-65
2022/12/13 00:28:18;;;;;;;20.80;9.57;;;;;;;-5.50;67.51;100856.72;5074695;28;20051;-64
2022/12/13 00:30:44;;;;;;;18.92;9.75;;;;;;;-5.83;68.38;100855.34;5085018;28;20048;-64
2022/12/13 00:33:11;;;;;;;19.40;10.75;;;;;;;-6.38;73.29;100849.31;5055839;28;20048;-64
2022/12/13 00:35:40;;;;;;;20.85;9.38;;;;;;;-6.31;74.10;100845.19;5039658;28;20047;-64
2022/12/13 00:38:10;;;;;;;23.30;10.27;;;;;;;-6.28;73.60;100846.09;5066885;28;20044;-64
2022/12/13 00:40:36;;;;;;;24.20;11.25;;;;;;;-6.35;73.17;100841.72;5050967;28;20044;-64
2022/12/13 00:43:03;;;;;;;23.00;10.43;;;;;;;-6.36;73.85;100840.03;5039693;28;20471;-64
2022/12/13 00:45:29;;;;;;;22.83;10.65;;;;;;;-6.19;73.51;100843.72;5048808;28;20489;-64
2022/12/13 00:47:55;;;;;;;26.85;10.95;;;;;;;-6.15;72.22;100840.38;5056271;28;20048;-64
2022/12/13 00:50:22;;;;;;;25.38;12.60;;;;;;;-6.54;73.77;100842.25;5055464;28;20052;-65
2022/12/13 00:52:48;;;;;;;22.85;10.63;;;;;;;-6.82;76.50;100851.03;5078992;28;20074;-64
2022/12/13 00:55:16;;;;;;;22.92;10.57;;;;;;;-6.37;75.01;100835.75;5054686;28;20055;-64
2022/12/13 00:57:43;;;;;;;19.58;9.20;;;;;;;-6.32;73.80;100834.16;5038818;28;20083;-64
2022/12/13 01:00:10;;;;;;;20.98;9.60;;;;;;;-6.32;73.26;100843.47;5047074;28;20045;-64
2022/12/13 01:02:37;;;;;;;19.48;9.75;;;;;;;-6.30;72.21;100842.66;5055334;28;20048;-65
2022/12/13 01:05:04;;;;;;;19.08;9.77;;;;;;;-5.94;70.51;100837.31;5041913;28;20041;-65
2022/12/13 01:07:31;;;;;;;19.83;9.13;;;;;;;-5.83;69.48;100845.13;5045638;28;20052;-65
2022/12/13 01:09:57;;;;;;;16.92;9.35;;;;;;;-6.05;69.93;100844.81;5060643;28;20052;-65
2022/12/13 01:12:25;;;;;;;17.02;7.82;;;;;;;-6.55;72.60;100848.16;5052615;28;20459;-64
2022/12/13 01:14:52;;;;;;;18.17;9.02;;;;;;;-6.76;74.95;100856.25;5052797;28;20567;-65
2022/12/13 01:17:18;;;;;;;19.73;9.07;;;;;;;-6.53;74.61;100855.00;5059320;28;20040;-65
2022/12/13 01:19:45;;;;;;;17.58;8.55;;;;;;;-6.19;73.00;100842.84;5038247;28;20048;-65
2022/12/13 01:22:11;;;;;;;20.75;8.13;;;;;;;-5.95;71.44;100840.72;5062020;28;20051;-65
2022/12/13 01:24:38;;;;;;;23.75;8.93;;;;;;;-5.78;70.13;100849.47;5058337;28;20051;-64
2022/12/13 01:27:05;;;;;;;15.52;7.80;;;;;;;-5.62;69.03;100843.78;5045857;28;20102;-64
2022/12/13 01:29:33;;;;;;;16.00;8.10;;;;;;;-5.57;68.64;100844.69;5047877;28;20047;-64
2022/12/13 01:31:59;;;;;;;19.52;9.15;;;;;;;-5.69;67.40;100843.66;5063409;28;20043;-64
2022/12/13 01:34:27;;;;;;;19.45;9.38;;;;;;;-5.74;66.91;100846.13;5039209;28;20045;-64
2022/12/13 01:36:55;;;;;;;21.60;8.98;;;;;;;-5.74;66.79;100845.28;5048100;28;20130;-64
2022/12/13 01:39:22;;;;;;;18.90;9.55;;;;;;;-5.73;66.55;100852.13;5048502;28;20048;-65
2022/12/13 01:41:50;;;;;;;24.52;10.05;;;;;;;-5.75;66.09;100843.56;5038174;28;20046;-65
2022/12/13 01:44:54;;;;;;;20.58;9.25;;;;;;;-5.74;65.27;100840.16;5050419;28;20059;-65
2022/12/13 01:47:27;;;;;;;17.75;9.43;;;;;;;-5.85;64.56;100834.91;5050870;28;20455;-64
2022/12/13 01:49:58;;;;;;;26.52;11.13;;;;;;;-5.94;64.00;100838.19;5052144;28;20041;-64
2022/12/13 01:52:25;;;;;;;24.15;11.27;;;;;;;-6.06;63.39;100837.97;5041608;28;20052;-64
2022/12/13 01:54:54;;;;;;;27.50;11.98;;;;;;;-6.05;63.48;100829.50;5050743;28;20424;-64
2022/12/13 01:57:23;;;;;;;24.55;10.38;;;;;;;-6.10;63.48;100831.13;5047498;28;20416;-65
2022/12/13 01:59:50;;;;;;;20.83;9.82;;;;;;;-6.29;63.36;100829.09;5050764;28;20385;-65
2022/12/13 02:02:17;;;;;;;20.45;9.23;;;;;;;-6.37;63.29;100830.63;5051925;28;20504;-65
2022/12/13 02:04:52;;;;;;;20.15;9.73;;;;;;;-6.43;63.69;100838.19;5041802;28;21569;-65
2022/12/13 02:07:22;;;;;;;20.27;8.55;;;;;;;-6.46;63.67;100845.75;5054124;28;20393;-65
2022/12/13 02:09:50;;;;;;;22.70;10.30;;;;;;;-6.83;64.52;100845.88;5051204;28;20551;-65
2022/12/13 02:12:16;;;;;;;16.98;8.30;;;;;;;-6.55;64.49;100845.63;5041889;28;20052;-66
2022/12/13 02:14:42;;;;;;;19.85;8.07;;;;;;;-6.50;64.16;100836.34;5051290;28;20166;-66
2022/12/13 02:17:17;;;;;;;18.60;9.18;;;;;;;-6.55;64.40;100838.81;5066567;28;20066;-66
2022/12/13 02:20:23;;;;;;;17.10;8.55;;;;;;;-6.48;64.03;100838.09;5060895;28;20053;-66
2022/12/13 02:23:07;;;;;;;20.63;9.07;;;;;;;-6.47;63.92;100841.53;5073728;28;20132;-66
2022/12/13 02:26:01;;;;;;;22.23;9.60;;;;;;;-6.38;63.89;100839.13;5058488;28;20051;-65
2022/12/13 02:28:47;;;;;;;22.38;10.45;;;;;;;-6.29;63.90;100831.63;5056148;28;20451;-66
2022/12/13 02:31:20;;;;;;;20.50;8.75;;;;;;;-6.22;63.88;100836.00;5041426;28;20052;-66
2022/12/13 02:33:53;;;;;;;27.90;9.55;;;;;;;-6.37;64.17;100833.19;5056700;28;20307;-66
2022/12/13 02:36:24;;;;;;;22.20;9.57;;;;;;;-6.36;64.13;100818.75;5067537;28;20047;-66
2022/12/13 02:38:58;;;;;;;22.27;10.83;;;;;;;-6.26;64.09;100816.38;5062877;28;20196;-66
2022/12/13 02:41:33;;;;;;;24.15;8.73;;;;;;;-6.22;64.14;100815.59;5058833;28;20051;-66
2022/12/13 02:44:06;;;;;;;21.23;10.95;;;;;;;-6.34;63.89;100812.84;5057840;28;20428;-65
2022/12/13 02:46:39;;;;;;;23.08;11.10;;;;;;;-6.28;63.88;100807.81;5065817;28;20053;-65
2022/12/13 02:49:08;;;;;;;25.42;10.77;;;;;;;-6.35;64.07;100811.09;5064711;28;20377;-65
2022/12/13 02:51:36;;;;;;;18.35;9.23;;;;;;;-6.53;64.77;100810.78;5050912;28;20051;-65
2022/12/13 02:54:03;;;;;;;20.95;9.43;;;;;;;-6.77;65.20;100802.69;5066542;28;20736;-65
2022/12/13 02:56:30;;;;;;;24.88;10.07;;;;;;;-7.04;66.97;100806.41;5066566;28;20509;-66
2022/12/13 02:58:59;;;;;;;17.15;8.63;;;;;;;-7.10;68.03;100811.41;5067650;28;20048;-66
2022/12/13 03:01:44;;;;;;;19.73;8.77;;;;;;;-7.12;68.57;100802.84;5050520;28;20064;-66
2022/12/13 03:04:20;;;;;;;18.95;9.38;;;;;;;-7.02;68.53;100807.28;5061040;28;20048;-66
2022/12/13 03:06:56;;;;;;;22.52;9.55;;;;;;;-6.79;67.80;100807.75;5040646;28;20045;-66
2022/12/13 03:09:34;;;;;;;18.73;8.88;;;;;;;-6.97;67.48;100810.81;5050383;28;20048;-65
2022/12/13 03:15:04;;;;;;;29.63;9.90;;;;;;;-7.18;73.16;100812.94;5050579;28;20051;-65
2022/12/13 03:17:37;;;;;;;26.92;11.27;;;;;;;-6.75;72.45;100814.63;5052537;28;20045;-65
2022/12/13 03:20:06;;;;;;;20.35;10.00;;;;;;;-6.60;73.36;100812.38;5037465;28;20148;-65
2022/12/13 03:22:34;;;;;;;29.27;11.93;;;;;;;-6.75;74.81;100814.63;5036923;28;20119;-65
2022/12/13 03:25:01;;;;;;;21.90;10.07;;;;;;;-6.71;74.94;100813.84;5036509;28;20045;-65
2022/12/13 03:27:27;;;;;;;23.58;11.35;;;;;;;-6.55;73.97;100809.91;5039073;28;20048;-65
2022/12/13 03:29:54;;;;;;;23.55;11.20;;;;;;;-6.43;72.31;100810.13;5038353;28;20095;-66
2022/12/13 03:32:20;;;;;;;19.25;10.75;;;;;;;-6.22;71.14;100805.41;5031013;28;20045;-66
2022/12/13 03:34:48;;;;;;;21.52;9.93;;;;;;;-6.11;70.15;100798.78;5045897;28;20044;-66
2022/12/13 03:37:15;;;;;;;22.70;11.00;;;;;;;-6.09;68.49;100804.75;5049836;28;20102;-66
2022/12/13 03:39:41;;;;;;;20.40;10.23;;;;;;;-6.12;67.82;100804.72;5059880;28;20047;-66
2022/12/13 03:42:08;;;;;;;25.30;9.45;;;;;;;-6.22;67.23;100800.28;5046912;28;20048;-66
2022/12/13 03:44:34;;;;;;;22.98;9.20;;;;;;;-6.32;66.89;100802.66;5056667;28;20459;-66
2022/12/13 03:47:01;;;;;;;23.17;9.63;;;;;;;-6.37;66.29;100802.56;5044467;28;20053;-66
2022/12/13 03:49:27;;;;;;;18.88;9.18;;;;;;;-6.22;65.83;100800.28;5030351;28;20055;-66
2022/12/13 03:51:55;;;;;;;21.67;8.38;;;;;;;-6.20;65.23;100803.72;5025728;28;20052;-66
2022/12/13 03:54:21;;;;;;;20.42;9.90;;;;;;;-6.26;64.63;100803.63;5063486;28;20486;-66
2022/12/13 03:56:48;;;;;;;17.02;9.10;;;;;;;-6.29;64.07;100803.56;5058158;28;20066;-66
2022/12/13 03:59:14;;;;;;;18.60;8.93;;;;;;;-6.55;63.67;100803.13;5037948;28;20091;-66
2022/12/13 04:01:41;;;;;;;15.98;8.63;;;;;;;-6.62;63.19;100798.75;5059655;27;20580;-66
2022/12/13 04:04:07;;;;;;;17.77;8.45;;;;;;;-6.55;62.79;100802.25;5085261;27;20691;-66
2022/12/13 04:06:34;;;;;;;20.38;9.48;;;;;;;-6.32;62.80;100803.53;5048061;28;20040;-66
2022/12/13 04:09:02;;;;;;;17.45;8.63;;;;;;;-6.37;62.13;100800.03;5062556;28;20052;-66
2022/12/13 04:14:12;;;;;;;18.77;8.98;;;;;;;-6.63;62.57;100806.34;5069784;27;20081;-66
2022/12/13 04:16:39;;;;;;;20.48;8.23;;;;;;;-6.64;62.61;100802.06;5067257;28;20044;-66
2022/12/13 04:19:05;;;;;;;22.30;9.30;;;;;;;-6.75;62.58;100806.13;5064601;28;20048;-66
2022/12/13 04:21:32;;;;;;;18.73;8.85;;;;;;;-6.98;62.60;100810.75;5041947;28;20071;-66
2022/12/13 04:23:58;;;;;;;18.50;8.73;;;;;;;-6.90;62.41;100815.19;5053201;28;20051;-66
2022/12/13 04:26:26;;;;;;;17.92;8.82;;;;;;;-6.86;62.28;100808.47;5053099;28;20598;-66
2022/12/13 04:28:52;;;;;;;14.60;8.05;;;;;;;-6.71;62.28;100818.09;5051643;28;20040;-66
2022/12/13 04:31:19;;;;;;;18.35;8.43;;;;;;;-6.66;61.83;100808.84;5051112;28;20056;-66
2022/12/13 04:33:45;;;;;;;16.48;8.32;;;;;;;-6.95;61.89;100809.13;5067750;28;20050;-66
2022/12/13 04:36:18;;;;;;;16.30;8.45;;;;;;;-7.48;63.03;100817.38;5047531;28;20044;-66
2022/12/13 04:38:45;;;;;;;22.92;8.85;;;;;;;-7.85;65.56;100809.72;5049579;28;20052;-66
2022/12/13 04:41:15;;;;;;;21.55;10.68;;;;;;;-8.38;68.76;100805.09;5067028;27;20051;-66
2022/12/13 04:43:43;;;;;;;20.00;9.25;;;;;;;-8.77;71.93;100798.13;5073196;27;20088;-66
2022/12/13 04:46:09;;;;;;;17.42;8.40;;;;;;;-8.40;70.98;100801.66;5094644;27;20050;-66
2022/12/13 04:48:36;;;;;;;17.65;8.80;;;;;;;-8.03;69.80;100808.47;5074667;27;20110;-66
2022/12/13 04:51:02;;;;;;;16.48;7.43;;;;;;;-7.96;68.74;100805.25;5062250;28;20052;-66
2022/12/13 04:53:29;;;;;;;18.05;8.40;;;;;;;-7.85;68.72;100804.63;5051158;28;20514;-66
2022/12/13 04:55:56;;;;;;;23.58;8.82;;;;;;;-7.53;67.83;100801.97;5059790;28;20496;-66
2022/12/13 04:58:22;;;;;;;15.85;6.90;;;;;;;-7.45;66.59;100803.00;5086523;27;20059;-66
2022/12/13 05:00:50;;;;;;;14.15;6.65;;;;;;;-7.60;64.99;100802.66;5055725;28;20044;-66
2022/12/13 05:03:16;;;;;;;16.27;7.70;;;;;;;-8.02;65.33;100805.06;5059604;28;20055;-66
2022/12/13 05:05:43;;;;;;;26.52;10.93;;;;;;;-8.52;69.38;100797.94;5051455;28;20710;-66
2022/12/13 05:08:09;;;;;;;30.00;12.38;;;;;;;-8.81;72.75;100801.38;5055119;28;20048;-66
2022/12/13 05:10:37;;;;;;;9.10;4.90;;;;;;;-8.46;73.05;100798.94;5051050;28;20055;-66
2022/12/13 05:13:03;;;;;;;15.35;7.30;;;;;;;-7.92;70.20;100798.53;5056925;28;20064;-66
2022/12/13 05:15:30;;;;;;;15.98;8.23;;;;;;;-7.84;70.60;100791.09;5076606;28;20067;-66
2022/12/13 05:18:01;;;;;;;16.48;7.50;;;;;;;-7.68;70.23;100786.34;5078198;28;20138;-66
2022/12/13 05:20:28;;;;;;;22.42;8.80;;;;;;;-7.28;66.51;100790.66;5053539;28;20068;-66
2022/12/13 05:22:55;;;;;;;20.20;9.48;;;;;;;-7.58;67.12;100792.53;5041164;28;20045;-66
2022/12/13 05:25:22;;;;;;;15.48;7.45;;;;;;;-7.79;67.59;100794.56;5061602;27;20043;-66
2022/12/13 05:27:48;;;;;;;17.27;9.00;;;;;;;-7.85;67.82;100802.09;5077650;28;20044;-66
2022/12/13 05:30:15;;;;;;;19.38;8.98;;;;;;;-7.80;66.26;100803.06;5055926;28;20052;-66
2022/12/13 05:32:41;;;;;;;21.60;8.77;;;;;;;-7.89;65.53;100802.00;5050596;28;20055;-66
2022/12/13 05:35:10;;;;;;;13.63;7.22;;;;;;;-7.89;65.18;100808.78;5056855;28;20485;-66
2022/12/13 05:37:36;;;;;;;16.00;7.20;;;;;;;-8.24;64.97;100805.38;5036916;28;20053;-66
2022/12/13 05:40:03;;;;;;;13.68;7.63;;;;;;;-8.32;65.55;100800.97;5022896;28;20085;-66
2022/12/13 05:42:30;;;;;;;12.98;6.75;;;;;;;-8.08;65.40;100804.06;5039292;28;20093;-66
2022/12/13 05:44:57;;;;;;;15.70;8.40;;;;;;;-8.23;65.08;100811.34;5068419;28;20044;-66
2022/12/13 05:47:23;;;;;;;13.88;6.68;;;;;;;-8.33;65.51;100807.75;5058449;28;20047;-66
2022/12/13 05:49:50;;;;;;;14.05;7.53;;;;;;;-8.07;65.18;100800.72;5032256;28;20052;-66
2022/12/13 05:52:20;;;;;;;17.83;7.50;;;;;;;-8.22;64.54;100802.88;5052023;28;20048;-66
2022/12/13 05:54:47;;;;;;;13.50;6.03;;;;;;;-8.36;64.35;100802.59;5035881;28;20052;-66
2022/12/13 05:57:14;;;;;;;15.98;7.82;;;;;;;-8.36;65.24;100801.72;5052478;28;20424;-66
2022/12/13 05:59:41;;;;;;;14.38;7.57;;;;;;;-8.15;64.87;100808.16;5052020;28;20064;-66
2022/12/13 06:02:07;;;;;;;18.52;9.07;;;;;;;-8.69;66.74;100807.66;5042155;28;20094;-65
2022/12/13 06:04:33;;;;;;;18.10;8.38;;;;;;;-8.48;66.81;100802.28;5043883;28;20416;-65
2022/12/13 06:07:00;;;;;;;14.68;7.72;;;;;;;-8.16;66.14;100806.44;5080444;28;20047;-65
2022/12/13 06:09:28;;;;;;;13.18;8.10;;;;;;;-8.16;65.17;100803.91;5045549;28;20059;-65
2022/12/13 06:11:54;;;;;;;12.15;6.82;;;;;;;-8.00;64.37;100800.91;5083122;28;20122;-65
2022/12/13 06:14:20;;;;;;;13.10;7.25;;;;;;;-8.24;63.84;100802.00;5045112;28;20425;-65
2022/12/13 06:16:47;;;;;;;15.63;7.85;;;;;;;-8.30;64.46;100795.09;5021344;28;20049;-65
2022/12/13 06:19:13;;;;;;;18.13;7.28;;;;;;;-8.31;64.94;100793.38;5032294;28;20057;-65
2022/12/13 06:21:40;;;;;;;19.52;8.68;;;;;;;-8.22;65.07;100796.13;5031991;28;20064;-65
2022/12/13 06:24:07;;;;;;;13.77;7.32;;;;;;;-8.40;65.56;100800.78;5025434;28;20421;-65
2022/12/13 06:26:35;;;;;;;13.05;6.80;;;;;;;-8.35;65.83;100803.44;5032377;28;20059;-65
2022/12/13 06:29:02;;;;;;;17.23;7.22;;;;;;;-8.31;65.90;100810.34;5044216;28;20048;-65
2022/12/13 06:31:28;;;;;;;17.65;7.90;;;;;;;-8.18;65.26;100819.94;5031582;28;20136;-64
2022/12/13 06:33:55;;;;;;;18.75;9.30;;;;;;;-8.15;64.75;100820.03;5038771;28;20048;-64
2022/12/13 06:36:21;;;;;;;15.18;7.05;;;;;;;-8.39;64.53;100817.78;5031301;28;20068;-64
2022/12/13 06:38:47;;;;;;;14.98;7.60;;;;;;;-8.43;64.74;100808.34;5028733;28;20048;-64
2022/12/13 06:41:16;;;;;;;14.13;7.95;;;;;;;-8.16;64.04;100819.16;5062510;28;20763;-64
2022/12/13 06:43:45;;;;;;;22.27;8.02;;;;;;;-8.15;63.97;100823.44;5058729;28;20047;-65
2022/12/13 06:46:12;;;;;;;16.83;7.88;;;;;;;-8.39;64.83;100825.41;5056591;28;20047;-65
2022/12/13 06:48:40;;;;;;;13.50;6.85;;;;;;;-8.72;65.88;100827.06;5054472;28;20051;-65
2022/12/13 06:51:08;;;;;;;24.42;9.55;;;;;;;-8.96;69.18;100840.81;5068141;28;20129;-65
2022/12/13 06:53:36;;;;;;;13.65;7.45;;;;;;;-8.76;68.75;100841.38;5072226;27;20766;-65
2022/12/13 06:56:04;;;;;;;18.85;8.65;;;;;;;-8.51;67.79;100845.41;5069241;28;20459;-65
2022/12/13 06:58:31;;;;;;;12.48;6.93;;;;;;;-8.26;66.71;100842.66;5076594;28;20543;-65
2022/12/13 07:01:04;;;;;;;14.95;8.38;;;;;;;-8.15;65.91;100833.59;5049151;28;20059;-65
2022/12/13 07:03:31;;;;;;;17.75;8.55;;;;;;;-8.14;65.43;100842.97;5055720;28;20419;-65
2022/12/13 07:05:58;;;;;;;13.43;6.95;;;;;;;-8.12;65.54;100838.75;5081950;28;20510;-65
2022/12/13 07:08:25;;;;;;;14.65;7.35;;;;;;;-8.29;65.15;100834.13;5072817;28;20054;-65
2022/12/13 07:10:54;;;;;;;17.48;7.55;;;;;;;-8.66;66.57;100838.25;5075617;28;20043;-65
2022/12/13 07:13:21;;;;;;;16.23;6.18;;;;;;;-8.72;68.13;100834.69;5056101;28;20173;-65
2022/12/13 07:15:47;;;;;;;12.00;6.68;;;;;;;-8.50;67.72;100839.53;5041938;28;20049;-65
2022/12/13 07:18:15;;;;;;;22.95;7.65;;;;;;;-8.44;66.92;100832.91;5054600;28;20056;-65
2022/12/13 07:20:43;;;;;;;16.92;7.63;;;;;;;-8.40;66.47;100841.47;5061068;28;20059;-65
2022/12/13 07:23:10;;;;;;;13.60;7.53;;;;;;;-8.53;66.67;100847.91;5035677;28;20604;-65
2022/12/13 07:25:36;;;;;;;18.13;7.80;;;;;;;-8.78;67.47;100852.28;5030818;28;20052;-66
2022/12/13 07:28:05;;;;;;;18.80;7.97;;;;;;;-8.88;67.88;100862.22;5031300;28;20560;-65
2022/12/13 07:30:34;;;;;;;18.23;8.30;;;;;;;-9.21;68.76;100856.16;5020919;28;20048;-65
2022/12/13 07:33:01;;;;;;;16.98;5.78;;;;;;;-9.22;71.21;100862.06;5030500;28;20049;-65
2022/12/13 07:35:29;;;;;;;24.35;10.55;;;;;;;-9.24;72.64;100861.16;5063474;28;20072;-65
2022/12/13 07:37:56;;;;;;;19.23;9.95;;;;;;;-8.75;70.89;100862.53;5043698;28;21602;-65
2022/12/13 07:40:22;;;;;;;21.85;8.95;;;;;;;-8.33;69.30;100860.28;5060390;27;20055;-65
2022/12/13 07:42:49;;;;;;;25.25;10.55;;;;;;;-8.11;68.03;100860.84;5070886;28;20463;-65
2022/12/13 07:45:16;;;;;;;22.05;8.65;;;;;;;-7.92;67.58;100857.94;5040604;28;20044;-65
2022/12/13 07:47:43;;;;;;;21.58;9.05;;;;;;;-7.77;66.70;100856.56;5049337;28;20056;-65
2022/12/13 07:50:10;;;;;;;20.25;9.45;;;;;;;-7.82;66.61;100863.22;5049572;28;20048;-65
2022/12/13 07:52:38;;;;;;;21.42;10.35;;;;;;;-7.80;66.68;100871.78;5038259;28;20044;-65
2022/12/13 07:55:05;;;;;;;30.73;11.00;;;;;;;-7.80;67.30;100871.78;5041326;28;20052;-65
2022/12/13 07:57:32;;;;;;;20.13;7.55;;;;;;;-7.76;68.46;100869.34;5050028;28;20067;-65
2022/12/13 07:59:58;;;;;;;22.17;8.90;;;;;;;-7.35;67.77;100866.91;5046898;27;20044;-66
2022/12/13 08:02:25;;;;;;;13.90;6.82;;;;;;;-7.30;68.00;100860.19;5068975;27;20048;-65
2022/12/13 08:04:51;;;;;;;20.58;10.13;;;;;;;-7.52;69.27;100864.81;5058570;27;20060;-65
2022/12/13 08:07:18;;;;;;;17.73;7.18;;;;;;;-7.68;69.96;100864.41;5059577;28;20071;-65
2022/12/13 08:09:45;;;;;;;25.17;12.23;;;;;;;-7.80;71.24;100864.16;5068086;28;20048;-65
2022/12/13 08:12:12;;;;;;;26.83;10.98;;;;;;;-7.95;72.35;100857.00;5084884;27;20050;-67
2022/12/13 08:14:38;;;;;;;22.75;8.48;;;;;;;-7.52;72.14;100858.84;5074571;27;20492;-66
2022/12/13 08:17:05;;;;;;;23.38;9.40;;;;;;;-7.03;70.45;100859.13;5068629;28;20044;-66
2022/12/13 08:19:31;;;;;;;10.13;6.07;;;;;;;-6.78;69.63;100857.91;5100691;27;20054;-66
2022/12/13 08:21:58;;;;;;;19.23;8.27;;;;;;;-7.13;70.09;100853.81;5094096;27;20487;-66
2022/12/13 08:24:25;;;;;;;31.02;11.75;;;;;;;-6.98;69.53;100854.09;5093661;27;20048;-66
2022/12/13 08:26:53;;;;;;;21.48;10.05;;;;;;;-7.09;69.92;100856.41;5083238;28;20542;-66
2022/12/13 08:29:20;;;;;;;19.52;7.47;;;;;;;-7.64;72.48;100863.66;5073742;28;20044;-66
2022/12/13 08:31:46;;;;;;;24.52;12.25;;;;;;;-7.70;73.07;100866.06;5075894;28;20067;-67
2022/12/13 08:34:13;;;;;;;24.83;7.82;;;;;;;-7.43;72.63;100865.00;5047905;28;20053;-66
2022/12/13 08:36:40;;;;;;;19.63;8.40;;;;;;;-7.06;71.77;100859.03;5063205;28;20046;-66
2022/12/13 08:39:06;;;;;;;20.58;9.07;;;;;;;-6.98;70.50;100857.50;5055226;28;20055;-66
2022/12/13 08:41:32;;;;;;;19.80;6.53;;;;;;;-6.90;70.28;100858.53;5063547;27;20506;-66
2022/12/13 08:44:00;;;;;;;20.17;9.25;;;;;;;-6.60;70.66;100860.81;5055138;28;20052;-66
2022/12/13 08:46:27;;;;;;;17.73;7.57;;;;;;;-6.57;71.04;100862.56;5056713;27;20462;-66
2022/12/13 08:48:53;;;;;;;16.45;10.20;;;;;;;-6.33;70.59;100863.03;5070677;28;20493;-66
2022/12/13 08:51:22;;;;;;;21.55;9.48;;;;;;;-6.45;71.30;100862.81;5038477;28;20048;-66
2022/12/13 08:53:49;;;;;;;24.17;10.23;;;;;;;-6.42;71.11;100867.94;5047432;28;20543;-66
2022/12/13 08:56:17;;;;;;;20.73;9.57;;;;;;;-6.16;71.36;100859.09;5080017;27;20523;-66
2022/12/13 08:58:44;;;;;;;29.60;11.90;;;;;;;-6.05;71.48;100865.22;5038303;28;20131;-66
2022/12/13 09:01:12;;;;;;;22.67;10.05;;;;;;;-5.62;71.51;100866.78;5048735;28;20499;-66
2022/12/13 09:03:38;;;;;;;30.52;11.65;;;;;;;-5.76;72.09;100859.69;5064438;28;20052;-66
2022/12/13 09:06:09;;;;;;;29.58;13.13;;;;;;;-5.54;72.00;100859.19;5053789;28;20068;-66
2022/12/13 09:08:36;;;;;;;27.45;11.95;;;;;;;-5.52;71.02;100858.41;5047823;28;20127;-66
2022/12/13 09:11:03;;;;;;;26.60;9.55;;;;;;;-5.57;72.33;100860.03;5048374;28;20048;-66
2022/12/13 09:13:31;;;;;;;30.65;12.75;;;;;;;-4.57;71.02;100851.13;5042994;28;20081;-65
2022/12/13 09:15:58;;;;;;;26.70;13.07;;;;;;;-4.27;69.74;100854.84;5045815;28;20412;-65
2022/12/13 09:18:26;;;;;;;27.15;13.32;;;;;;;-3.81;67.53;100849.31;5059985;28;20534;-65
2022/12/13 09:20:52;;;;;;;31.63;14.05;;;;;;;-3.11;66.94;100842.94;5087182;27;20041;-65
2022/12/13 09:23:19;;;;;;;27.13;13.65;;;;;;;-2.07;62.50;100844.97;5078125;28;20044;-65
2022/12/13 09:25:45;;;;;;;34.65;13.90;;;;;;;-2.18;60.52;100848.41;5068678;28;20055;-65
2022/12/13 09:28:11;;;;;;;30.95;13.63;;;;;;;-2.14;62.85;100856.09;5063821;28;20040;-65
2022/12/13 09:30:39;;;;;;;26.90;13.30;;;;;;;-2.03;61.55;100859.53;5067862;28;20533;-65
2022/12/13 09:33:05;;;;;;;34.03;13.40;;;;;;;-1.60;61.14;100850.13;5069168;28;20052;-65
2022/12/13 09:35:33;;;;;;;24.92;12.02;;;;;;;-0.29;56.45;100849.69;5053233;28;20060;-65
2022/12/13 09:37:59;;;;;;;26.00;11.95;;;;;;;0.03;56.77;100846.91;5047749;28;20040;-65
2022/12/13 09:40:28;;;;;;;25.58;12.75;;;;;;;0.30;53.61;100851.84;5048606;28;20049;-65
2022/12/13 09:42:57;;;;;;;58.58;25.50;;;;;;;0.05;55.32;100840.00;5046985;28;20531;-65
2022/12/13 09:45:24;;;;;;;24.02;11.98;;;;;;;0.64;53.75;100842.94;5048676;28;20056;-65
2022/12/13 09:47:53;;;;;;;25.70;13.05;;;;;;;1.42;51.79;100837.75;5042651;28;20051;-66
2022/12/13 09:50:24;;;;;;;23.50;12.98;;;;;;;0.69;52.08;100832.59;5048848;28;20049;-66
2022/12/13 09:52:52;;;;;;;29.67;14.23;;;;;;;-0.08;57.27;100831.53;5060593;28;20048;-66
2022/12/13 09:55:21;;;;;;;27.33;13.85;;;;;;;0.86;54.08;100835.84;5075242;28;20411;-66
2022/12/13 09:57:49;;;;;;;28.05;13.63;;;;;;;1.44;52.73;100831.69;5085139;28;20458;-66
2022/12/13 10:00:19;;;;;;;25.65;12.32;;;;;;;2.01;50.50;100831.75;5054217;28;20052;-66
2022/12/13 10:02:48;;;;;;;27.45;14.60;;;;;;;1.90;50.12;100838.81;5032079;28;20492;-66
2022/12/13 10:05:20;;;;;;;25.30;13.88;;;;;;;2.11;49.76;100829.84;5047240;28;20145;-66
2022/12/13 10:07:47;;;;;;;27.85;13.40;;;;;;;2.42;49.78;100842.28;5052106;28;20048;-66
2022/12/13 10:10:15;;;;;;;26.73;14.07;;;;;;;2.48;48.97;100841.31;5048693;28;20454;-66
2022/12/13 10:12:44;;;;;;;25.92;13.82;;;;;;;2.61;48.36;100842.84;5064238;28;20492;-66
2022/12/13 10:15:15;;;;;;;24.75;13.10;;;;;;;1.71;51.15;100833.06;5043309;28;20063;-66
2022/12/13 10:17:47;;;;;;;21.92;12.48;;;;;;;1.47;52.45;100825.66;5051779;28;20074;-66
2022/12/13 10:20:17;;;;;;;21.52;11.95;;;;;;;0.65;53.85;100812.84;5051594;28;20054;-66
2022/12/13 10:22:44;;;;;;;24.73;12.57;;;;;;;1.14;53.30;100811.44;5044059;28;20075;-69
2022/12/13 10:25:10;;;;;;;24.63;13.85;;;;;;;0.67;54.42;100806.78;5052026;28;20044;-69
2022/12/13 10:27:40;;;;;;;24.77;14.23;;;;;;;0.18;56.43;100810.72;5065159;28;20488;-69
2022/12/13 10:30:09;;;;;;;23.55;13.43;;;;;;;0.35;57.12;100806.25;5040713;28;20051;-69
2022/12/13 10:32:45;;;;;;;23.10;12.48;;;;;;;1.31;53.89;100806.91;5050891;28;20068;-69
2022/12/13 10:35:21;;;;;;;20.20;11.23;;;;;;;1.13;53.89;100804.56;5041796;28;20037;-70
2022/12/13 10:37:48;;;;;;;22.02;11.68;;;;;;;-0.08;56.22;100798.88;5063454;28;20056;-70
2022/12/13 10:40:25;;;;;;;21.55;11.77;;;;;;;-0.41;60.63;100793.09;5065440;28;20055;-70
2022/12/13 10:43:06;;;;;;;22.15;11.15;;;;;;;0.82;56.07;100798.03;5063928;28;20044;-70
2022/12/13 10:45:33;;;;;;;24.85;13.63;;;;;;;0.45;56.06;100803.56;5081756;28;20768;-71
2022/12/13 10:48:00;;;;;;;23.05;12.05;;;;;;;0.16;59.29;100792.66;5079032;27;20047;-70
2022/12/13 10:50:28;;;;;;;19.60;10.27;;;;;;;0.48;57.08;100794.97;5062507;27;20048;-70
2022/12/13 10:52:57;;;;;;;18.63;8.77;;;;;;;0.54;57.36;100797.47;5051317;28;20512;-70
2022/12/13 10:55:28;;;;;;;18.95;9.63;;;;;;;0.36;57.78;100797.66;5053643;28;20574;-70
2022/12/13 10:57:57;;;;;;;20.75;11.13;;;;;;;0.22;59.00;100795.19;5062685;28;20178;-70
2022/12/13 11:00:35;;;;;;;21.10;10.32;;;;;;;0.36;58.08;100792.50;5049366;28;20040;-70
2022/12/13 11:03:01;;;;;;;18.50;9.00;;;;;;;0.71;57.20;100787.81;5056573;28;20044;-70
2022/12/13 11:05:31;;;;;;;18.35;9.30;;;;;;;0.25;58.86;100786.59;5050491;28;20052;-70
2022/12/13 11:08:13;;;;;;;18.58;10.45;;;;;;;-0.08;59.59;100783.44;5043772;28;20063;-70
2022/12/13 11:10:39;;;;;;;20.13;9.02;;;;;;;-0.01;60.31;100782.50;5061514;28;20447;-70
2022/12/13 11:13:07;;;;;;;19.38;10.18;;;;;;;0.35;59.81;100788.19;5042211;28;20044;-70
2022/12/13 11:15:38;;;;;;;24.15;11.85;;;;;;;-0.10;60.71;100782.56;5038224;28;20519;-70
2022/12/13 11:18:07;;;;;;;23.25;12.20;;;;;;;-0.44;62.43;100770.78;5050542;28;20040;-70
2022/12/13 11:20:36;;;;;;;20.88;12.00;;;;;;;0.04;60.97;100779.03;5040693;28;20048;-70
2022/12/13 11:23:05;;;;;;;18.15;9.05;;;;;;;0.59;58.57;100775.06;5063370;28;20047;-70
2022/12/13 11:25:40;;;;;;;23.20;11.95;;;;;;;0.89;58.66;100773.84;5042134;28;20047;-70